Time;durP1;ratioP1;P1;durP2;ratioP2;P2;SDS_P1;SDS_P2;PMS_P1;PMS_P2;Temp;Humidity;BMP_temperature;BMP_pressure;BME280_temperature;BME280_humidity;BME280_pressure;Samples;Min_cycle;Max_cycle;Signal;HPM_P1;HPM_P2
2021/09/01 00:00:46;;;;;;;15.05;4.60;;;;;;;15.85;76.51;102982.59;4941014;28;20051;-71
2021/09/01 00:03:14;;;;;;;18.88;5.20;;;;;;;15.81;76.43;102986.25;4939099;28;20047;-70
2021/09/01 00:05:42;;;;;;;13.57;4.40;;;;;;;15.81;76.37;102980.00;4939708;28;20299;-69
2021/09/01 00:08:10;;;;;;;11.23;4.53;;;;;;;15.82;76.02;102979.09;4940199;28;20059;-69
2021/09/01 00:10:39;;;;;;;13.38;4.70;;;;;;;15.80;76.31;102981.81;4940342;28;20050;-69
2021/09/01 00:13:07;;;;;;;15.18;4.70;;;;;;;15.82;75.88;102977.25;4939161;28;20122;-69
2021/09/01 00:15:34;;;;;;;18.13;4.80;;;;;;;15.76;75.43;102976.50;4939806;28;20147;-69
2021/09/01 00:18:02;;;;;;;12.32;4.45;;;;;;;15.78;75.35;102974.66;4940396;28;20055;-69
2021/09/01 00:20:30;;;;;;;16.13;5.20;;;;;;;15.78;75.27;102975.56;4937708;28;20086;-69
2021/09/01 00:22:58;;;;;;;12.75;4.75;;;;;;;15.77;74.90;102971.09;4942141;28;20118;-69
2021/09/01 00:25:26;;;;;;;13.50;4.25;;;;;;;15.72;75.08;102972.94;4940279;28;20102;-69
2021/09/01 00:27:55;;;;;;;12.77;4.22;;;;;;;15.73;75.09;102973.84;4939468;28;20062;-69
2021/09/01 00:30:22;;;;;;;13.82;5.15;;;;;;;15.68;75.76;102972.13;4941504;28;20060;-69
2021/09/01 00:32:50;;;;;;;13.60;4.30;;;;;;;15.71;75.66;102978.38;4938647;28;20146;-69
2021/09/01 00:35:18;;;;;;;12.65;4.50;;;;;;;15.66;75.89;102973.97;4938557;28;20051;-69
2021/09/01 00:37:46;;;;;;;11.93;4.82;;;;;;;15.65;75.91;102980.25;4939669;28;20306;-69
2021/09/01 00:40:14;;;;;;;15.27;4.35;;;;;;;15.65;75.91;102976.69;4939819;28;20060;-69
2021/09/01 00:42:42;;;;;;;14.27;5.10;;;;;;;15.66;75.69;102973.97;4938434;28;20085;-69
2021/09/01 00:45:14;;;;;;;15.65;5.28;;;;;;;15.66;75.82;102979.34;4940083;28;20043;-69
2021/09/01 00:47:41;;;;;;;18.65;5.18;;;;;;;15.66;75.53;102976.66;4940735;28;20055;-69
2021/09/01 00:50:11;;;;;;;17.88;5.20;;;;;;;15.63;75.97;102983.88;4938891;28;20054;-69
2021/09/01 00:52:41;;;;;;;10.45;4.35;;;;;;;15.62;76.03;102976.75;4940924;28;20082;-69
2021/09/01 00:55:11;;;;;;;16.60;5.05;;;;;;;15.55;76.01;102970.59;4937601;28;20043;-69
2021/09/01 00:57:41;;;;;;;17.10;5.10;;;;;;;15.56;76.94;102980.44;4936453;28;20460;-69
2021/09/01 01:00:14;;;;;;;10.68;4.05;;;;;;;15.57;76.31;102973.25;4940112;28;20055;-66
2021/09/01 01:02:43;;;;;;;13.85;4.75;;;;;;;15.57;76.65;102970.56;4940334;28;20113;-66
2021/09/01 01:05:11;;;;;;;13.88;5.00;;;;;;;15.58;76.61;102966.94;4936271;28;20056;-66
2021/09/01 01:07:39;;;;;;;13.60;5.25;;;;;;;15.58;76.51;102972.31;4940446;28;20047;-66
2021/09/01 01:10:08;;;;;;;15.40;4.60;;;;;;;15.58;76.92;102973.22;4939657;28;20119;-67
2021/09/01 01:12:35;;;;;;;14.32;4.38;;;;;;;15.55;76.93;102967.91;4940452;28;20668;-66
2021/09/01 01:15:03;;;;;;;12.98;4.43;;;;;;;15.56;76.90;102972.38;4937445;28;20059;-66
2021/09/01 01:17:32;;;;;;;13.98;5.90;;;;;;;15.59;76.02;102968.72;4936039;28;20581;-65
2021/09/01 01:20:02;;;;;;;14.18;5.07;;;;;;;15.60;76.18;102968.69;4938412;28;20503;-65
2021/09/01 01:22:30;;;;;;;15.18;5.93;;;;;;;15.60;75.76;102967.81;4939352;28;20062;-67
2021/09/01 01:25:00;;;;;;;13.60;5.38;;;;;;;15.59;76.11;102966.91;4938431;28;20376;-66
2021/09/01 01:27:32;;;;;;;18.90;6.15;;;;;;;15.56;75.92;102969.69;4938038;28;20051;-65
2021/09/01 01:30:10;;;;;;;13.68;4.93;;;;;;;15.55;76.13;102973.28;4939792;28;20062;-65
2021/09/01 01:32:39;;;;;;;15.82;5.10;;;;;;;15.57;76.16;102975.94;4938761;28;20047;-65
2021/09/01 01:35:08;;;;;;;13.90;5.00;;;;;;;15.57;76.09;102970.56;4939349;28;20822;-65
2021/09/01 01:37:36;;;;;;;13.50;5.35;;;;;;;15.54;75.87;102973.31;4938064;28;20062;-65
2021/09/01 01:40:05;;;;;;;13.60;5.70;;;;;;;15.50;75.75;102976.06;4937730;28;20653;-67
2021/09/01 01:42:40;;;;;;;15.48;5.70;;;;;;;15.49;75.79;102965.31;4940367;28;20051;-66
2021/09/01 01:45:09;;;;;;;14.60;5.65;;;;;;;15.48;76.20;102969.81;4937699;28;20078;-65
2021/09/01 01:47:37;;;;;;;15.93;5.35;;;;;;;15.48;76.27;102968.94;4936435;28;20051;-66
2021/09/01 01:50:06;;;;;;;12.63;5.10;;;;;;;15.47;76.35;102965.34;4939734;28;20039;-65
2021/09/01 01:52:34;;;;;;;17.00;5.93;;;;;;;15.44;76.48;102967.19;4939803;28;20057;-65
2021/09/01 01:55:02;;;;;;;14.10;4.63;;;;;;;15.42;76.64;102963.66;4938250;28;20051;-65
2021/09/01 01:57:31;;;;;;;14.88;5.50;;;;;;;15.42;76.50;102958.28;4940502;28;20051;-65
2021/09/01 02:00:00;;;;;;;14.05;4.72;;;;;;;15.40;76.32;102961.00;4936807;28;20051;-65
2021/09/01 02:02:30;;;;;;;12.50;4.90;;;;;;;15.41;76.31;102961.88;4935343;28;20051;-65
2021/09/01 02:04:58;;;;;;;17.38;4.95;;;;;;;15.37;76.31;102965.56;4935914;28;20569;-66
2021/09/01 02:07:28;;;;;;;15.40;5.65;;;;;;;15.36;76.24;102963.75;4937122;28;20043;-65
2021/09/01 02:09:55;;;;;;;12.20;4.13;;;;;;;15.36;76.18;102963.75;4937178;28;20142;-66
2021/09/01 02:12:26;;;;;;;17.10;4.97;;;;;;;15.35;76.50;102956.63;4938657;28;20059;-65
2021/09/01 02:14:54;;;;;;;13.80;4.55;;;;;;;15.32;76.39;102969.22;4936700;28;20082;-66
2021/09/01 02:17:23;;;;;;;15.05;5.18;;;;;;;15.30;76.81;102960.28;4938586;28;20305;-65
2021/09/01 02:19:51;;;;;;;13.43;4.47;;;;;;;15.30;76.56;102967.47;4938811;28;20059;-66
2021/09/01 02:22:19;;;;;;;12.02;4.13;;;;;;;15.29;76.22;102966.59;4937881;28;20063;-66
2021/09/01 02:24:47;;;;;;;11.10;4.15;;;;;;;15.26;76.44;102963.06;4939566;28;20373;-65
2021/09/01 02:27:15;;;;;;;11.88;4.43;;;;;;;15.26;76.22;102965.75;4935706;28;20124;-65
2021/09/01 02:29:43;;;;;;;11.95;4.60;;;;;;;15.26;76.22;102965.75;4935808;28;20083;-66
2021/09/01 02:32:11;;;;;;;15.48;4.22;;;;;;;15.25;76.15;102969.34;4938293;28;20237;-66
2021/09/01 02:34:40;;;;;;;28.15;5.25;;;;;;;15.23;76.31;102964.00;4936974;28;20058;-66
2021/09/01 02:37:08;;;;;;;12.10;4.32;;;;;;;15.24;76.44;102963.09;4938919;28;20051;-66
2021/09/01 02:39:35;;;;;;;11.75;4.20;;;;;;;15.24;76.39;102967.59;4941801;28;20075;-65
2021/09/01 02:42:04;;;;;;;11.63;4.30;;;;;;;15.23;76.52;102961.31;4939940;28;20082;-65
2021/09/01 02:44:32;;;;;;;12.68;4.30;;;;;;;15.23;76.49;102966.69;4941842;28;20062;-66
2021/09/01 02:47:00;;;;;;;10.90;3.83;;;;;;;15.23;76.41;102969.38;4940524;28;20102;-68
2021/09/01 02:49:28;;;;;;;10.60;3.90;;;;;;;15.23;76.66;102969.38;4940842;28;20058;-68
2021/09/01 02:51:57;;;;;;;14.20;4.38;;;;;;;15.22;76.37;102961.31;4942039;28;20063;-68
2021/09/01 02:54:25;;;;;;;11.88;4.43;;;;;;;15.22;76.85;102966.72;4941551;28;20109;-69
2021/09/01 02:56:54;;;;;;;13.45;4.63;;;;;;;15.22;76.83;102967.63;4940563;28;20051;-69
2021/09/01 02:59:22;;;;;;;9.32;4.32;;;;;;;15.23;76.62;102963.13;4941086;28;20098;-69
2021/09/01 03:01:49;;;;;;;14.32;4.45;;;;;;;15.25;77.34;102963.97;4940743;28;20534;-68
2021/09/01 03:04:18;;;;;;;13.18;4.25;;;;;;;15.25;76.98;102961.28;4937827;28;20055;-69
2021/09/01 03:06:45;;;;;;;15.77;4.10;;;;;;;15.26;77.16;102960.38;4940813;28;20464;-69
2021/09/01 03:09:14;;;;;;;16.73;4.75;;;;;;;15.24;76.69;102952.34;4939784;28;20058;-69
2021/09/01 03:11:42;;;;;;;12.02;4.32;;;;;;;15.26;78.26;102961.25;4939744;28;20106;-68
2021/09/01 03:14:10;;;;;;;13.35;5.05;;;;;;;15.26;77.69;102960.38;4943601;28;20491;-69
2021/09/01 03:16:38;;;;;;;16.05;4.43;;;;;;;15.24;77.67;102959.53;4939944;28;20518;-66
2021/09/01 03:19:08;;;;;;;12.10;4.30;;;;;;;15.24;77.77;102956.84;4942811;28;20046;-66
2021/09/01 03:21:36;;;;;;;10.98;4.38;;;;;;;15.18;77.79;102955.13;4938895;28;20102;-66
2021/09/01 03:24:04;;;;;;;12.25;4.05;;;;;;;15.18;77.89;102951.56;4940177;28;20157;-66
2021/09/01 03:26:34;;;;;;;10.15;3.92;;;;;;;15.19;77.91;102956.00;4940065;28;20050;-66
2021/09/01 03:29:02;;;;;;;10.32;4.20;;;;;;;15.20;77.97;102953.28;4938116;28;20051;-66
2021/09/01 03:31:30;;;;;;;12.90;4.85;;;;;;;15.20;78.44;102953.28;4942374;28;20051;-65
2021/09/01 03:33:58;;;;;;;13.32;4.55;;;;;;;15.19;78.33;102948.84;4938175;28;20062;-66
2021/09/01 03:36:27;;;;;;;14.02;4.50;;;;;;;15.18;78.44;102954.25;4940165;28;20416;-65
2021/09/01 03:38:55;;;;;;;14.98;4.53;;;;;;;15.17;77.91;102953.38;4940868;28;20062;-65
2021/09/01 03:41:23;;;;;;;11.60;5.07;;;;;;;15.16;78.04;102951.59;4941963;28;20047;-65
2021/09/01 03:43:52;;;;;;;11.63;4.50;;;;;;;15.17;77.97;102952.47;4938844;28;20051;-65
2021/09/01 03:46:20;;;;;;;15.68;5.03;;;;;;;15.16;77.93;102961.47;4937672;28;20063;-65
2021/09/01 03:48:48;;;;;;;12.43;4.30;;;;;;;15.17;78.06;102957.84;4940930;28;20059;-65
2021/09/01 03:51:16;;;;;;;13.90;4.18;;;;;;;15.14;77.94;102958.78;4939543;28;20047;-65
2021/09/01 03:53:43;;;;;;;11.48;4.90;;;;;;;15.16;78.48;102954.28;4940158;28;20098;-65
2021/09/01 03:56:11;;;;;;;12.00;4.00;;;;;;;15.13;78.00;102957.00;4939873;28;20488;-67
2021/09/01 03:58:39;;;;;;;14.00;4.57;;;;;;;15.12;78.55;102957.94;4938264;28;20051;-66
2021/09/01 04:01:09;;;;;;;13.98;4.45;;;;;;;15.12;78.56;102960.63;4942413;28;20473;-67
2021/09/01 04:03:38;;;;;;;13.35;4.20;;;;;;;15.11;78.55;102962.41;4936560;28;21467;-66
2021/09/01 04:06:06;;;;;;;9.98;4.40;;;;;;;15.10;78.81;102967.81;4940414;28;20067;-66
2021/09/01 04:08:33;;;;;;;13.32;5.13;;;;;;;15.08;78.68;102962.44;4938538;28;20058;-66
2021/09/01 04:11:01;;;;;;;12.65;4.45;;;;;;;15.07;78.91;102968.78;4937513;28;20527;-66
2021/09/01 04:13:29;;;;;;;11.82;4.38;;;;;;;15.09;78.70;102968.75;4939256;28;20074;-67
2021/09/01 04:15:57;;;;;;;13.07;4.60;;;;;;;15.07;78.50;102960.69;4939550;28;20058;-66
2021/09/01 04:18:26;;;;;;;14.32;4.47;;;;;;;15.08;78.53;102964.28;4941634;28;20055;-66
2021/09/01 04:20:57;;;;;;;12.02;4.65;;;;;;;15.10;79.38;102957.97;4939797;28;20058;-66
2021/09/01 04:23:25;;;;;;;12.48;4.45;;;;;;;15.12;80.99;102961.50;4938259;28;20078;-65
2021/09/01 04:25:53;;;;;;;10.35;4.13;;;;;;;15.13;80.93;102957.88;4938355;28;20048;-67
2021/09/01 04:28:21;;;;;;;12.00;4.60;;;;;;;15.12;81.08;102961.50;4939675;28;20117;-68
2021/09/01 04:30:49;;;;;;;11.30;4.65;;;;;;;15.11;81.34;102959.72;4938600;28;20098;-69
2021/09/01 04:33:17;;;;;;;16.60;4.75;;;;;;;15.08;80.08;102962.44;4941454;28;20130;-68
2021/09/01 04:35:47;;;;;;;13.32;4.65;;;;;;;15.06;79.91;102966.09;4940579;28;20055;-68
2021/09/01 04:38:14;;;;;;;14.15;4.95;;;;;;;15.08;81.35;102961.56;4938661;28;20085;-69
2021/09/01 04:40:42;;;;;;;15.13;4.78;;;;;;;15.09;81.48;102963.38;4936758;28;20111;-69
2021/09/01 04:43:10;;;;;;;15.07;4.53;;;;;;;15.08;80.61;102958.88;4938871;28;20051;-69
2021/09/01 04:45:37;;;;;;;16.90;5.13;;;;;;;15.08;80.86;102959.75;4939531;28;20086;-68
2021/09/01 04:48:07;;;;;;;14.85;5.55;;;;;;;15.09;81.31;102956.19;4940320;28;20048;-68
2021/09/01 04:50:36;;;;;;;11.13;4.63;;;;;;;15.08;82.13;102964.28;4939747;28;20059;-69
2021/09/01 04:53:05;;;;;;;15.32;5.55;;;;;;;15.09;82.45;102964.25;4937064;28;20564;-68
2021/09/01 04:55:33;;;;;;;12.43;4.50;;;;;;;15.10;81.47;102957.97;4936588;28;20118;-69
2021/09/01 04:58:01;;;;;;;14.80;4.80;;;;;;;15.10;81.64;102955.28;4938881;28;20055;-67
2021/09/01 05:00:29;;;;;;;13.82;5.10;;;;;;;15.09;80.73;102956.19;4938964;28;20055;-66
2021/09/01 05:02:57;;;;;;;9.98;4.60;;;;;;;15.08;80.50;102966.97;4937682;28;20058;-66
2021/09/01 05:05:25;;;;;;;10.43;4.55;;;;;;;15.05;79.74;102961.63;4939948;28;20042;-66
2021/09/01 05:07:52;;;;;;;12.38;4.82;;;;;;;15.05;80.53;102970.59;4938539;28;20063;-66
2021/09/01 05:10:22;;;;;;;15.40;4.80;;;;;;;15.07;80.43;102962.50;4936343;28;20050;-66
2021/09/01 05:12:51;;;;;;;13.55;4.85;;;;;;;15.07;79.70;102962.50;4934670;28;20051;-66
2021/09/01 05:15:20;;;;;;;11.60;4.47;;;;;;;15.04;80.20;102971.50;4941296;28;20080;-66
2021/09/01 05:17:49;;;;;;;12.77;4.95;;;;;;;15.03;81.08;102964.34;4939562;28;20055;-69
2021/09/01 05:20:18;;;;;;;12.95;4.93;;;;;;;15.05;80.58;102967.91;4937313;28;20107;-69
2021/09/01 05:22:48;;;;;;;12.55;5.30;;;;;;;15.03;81.40;102971.53;4937866;28;20253;-69
2021/09/01 05:25:19;;;;;;;10.80;4.93;;;;;;;15.06;81.25;102971.47;4938153;28;20055;-69
2021/09/01 05:27:52;;;;;;;11.77;5.35;;;;;;;15.10;81.06;102975.88;4937503;28;20055;-69
2021/09/01 05:30:20;;;;;;;11.27;4.43;;;;;;;15.11;81.12;102967.78;4939567;28;20051;-69
2021/09/01 05:32:50;;;;;;;12.20;5.03;;;;;;;15.15;81.45;102979.38;4936818;28;20102;-69
2021/09/01 05:35:18;;;;;;;9.25;4.60;;;;;;;15.17;82.07;102988.31;4936598;28;20076;-69
2021/09/01 05:37:46;;;;;;;9.50;4.05;;;;;;;15.19;81.69;102988.28;4938443;28;21062;-69
2021/09/01 05:40:14;;;;;;;12.05;4.25;;;;;;;15.19;81.24;102986.50;4942049;28;20055;-69
2021/09/01 05:42:42;;;;;;;17.25;4.75;;;;;;;15.22;81.72;102975.69;4939957;28;20054;-69
2021/09/01 05:45:11;;;;;;;13.43;4.25;;;;;;;15.25;82.67;102982.78;4938941;28;20059;-69
2021/09/01 05:47:44;;;;;;;14.18;4.72;;;;;;;15.21;81.00;102984.66;4935621;28;20057;-69
2021/09/01 05:50:12;;;;;;;12.85;4.53;;;;;;;15.21;80.57;102981.97;4939990;28;20139;-69
2021/09/01 05:52:41;;;;;;;16.67;5.15;;;;;;;15.24;80.50;102975.66;4935301;28;20129;-69
2021/09/01 05:55:10;;;;;;;12.45;4.22;;;;;;;15.28;79.84;102982.75;4934376;28;20062;-69
2021/09/01 05:57:39;;;;;;;11.80;4.50;;;;;;;15.32;80.14;102979.06;4937819;28;20051;-69
2021/09/01 06:00:10;;;;;;;13.80;4.18;;;;;;;15.35;79.04;102978.16;4939939;28;20459;-69
2021/09/01 06:02:49;;;;;;;12.80;4.05;;;;;;;15.43;79.86;102982.47;4941253;28;20055;-68
2021/09/01 06:05:19;;;;;;;11.82;4.30;;;;;;;15.45;78.16;102991.38;4937333;28;20454;-69
2021/09/01 06:07:52;;;;;;;11.50;3.90;;;;;;;15.44;78.34;102986.94;4939682;28;20097;-68
2021/09/01 06:10:26;;;;;;;9.77;4.37;;;;;;;15.47;78.28;102988.69;4937866;28;20055;-69
2021/09/01 06:12:54;;;;;;;;;;;;;;;15.50;77.65;102988.63;4937813;28;20047;-68
2021/09/01 06:15:24;;;;;;;9.02;4.43;;;;;;;15.56;78.12;102991.22;4938466;28;20016;-69
2021/09/01 06:17:53;;;;;;;10.95;4.13;;;;;;;15.60;79.09;102992.03;4937503;28;20047;-69
2021/09/01 06:20:21;;;;;;;13.63;4.60;;;;;;;15.64;77.04;102988.34;4939425;28;20051;-69
2021/09/01 06:22:49;;;;;;;10.65;4.15;;;;;;;15.67;77.38;102983.78;4939211;28;20373;-68
2021/09/01 06:25:17;;;;;;;10.02;4.30;;;;;;;15.71;76.97;102984.63;4934610;28;20349;-66
2021/09/01 06:27:45;;;;;;;11.60;4.10;;;;;;;15.75;76.93;102988.13;4939402;28;20050;-66
2021/09/01 06:30:14;;;;;;;10.27;4.28;;;;;;;15.78;76.89;102994.41;4938584;28;20490;-66
2021/09/01 06:32:42;;;;;;;14.27;4.85;;;;;;;15.81;76.83;102986.25;4936173;28;20047;-67
2021/09/01 06:35:12;;;;;;;13.52;4.10;;;;;;;15.90;74.68;102986.97;4936323;28;20054;-66
2021/09/01 06:37:42;;;;;;;9.68;4.10;;;;;;;15.89;74.75;102994.19;4938187;28;20070;-66
2021/09/01 06:40:11;;;;;;;13.73;4.47;;;;;;;15.87;74.81;102994.22;4938283;28;20067;-66
2021/09/01 06:42:39;;;;;;;13.32;4.60;;;;;;;15.90;74.65;103001.31;4937922;28;20059;-65
2021/09/01 06:45:09;;;;;;;10.20;4.28;;;;;;;15.93;74.36;102998.56;4941516;28;20055;-65
2021/09/01 06:47:42;;;;;;;10.05;4.43;;;;;;;16.01;75.58;103007.38;4937525;28;20450;-66
2021/09/01 06:50:14;;;;;;;14.63;4.50;;;;;;;16.00;74.69;102997.53;4938147;28;20062;-66
2021/09/01 06:52:43;;;;;;;12.23;4.85;;;;;;;16.06;73.91;103001.91;4938212;28;20062;-66
2021/09/01 06:55:12;;;;;;;10.65;4.18;;;;;;;16.05;72.69;103001.00;4938361;28;20063;-66
2021/09/01 06:57:40;;;;;;;9.93;4.55;;;;;;;16.11;73.57;102996.44;4940194;28;20479;-66
2021/09/01 07:00:10;;;;;;;11.23;4.78;;;;;;;16.14;73.57;102997.25;4935473;28;20051;-66
2021/09/01 07:02:40;;;;;;;12.25;4.97;;;;;;;16.18;73.58;102990.00;4937226;28;20122;-66
2021/09/01 07:05:11;;;;;;;14.13;4.43;;;;;;;16.16;72.82;102997.22;4936217;28;20388;-66
2021/09/01 07:07:42;;;;;;;10.63;4.60;;;;;;;16.13;73.47;102991.91;4937356;28;20111;-66
2021/09/01 07:10:11;;;;;;;8.60;3.70;;;;;;;16.19;73.11;103002.53;4937053;28;20059;-66
2021/09/01 07:12:40;;;;;;;12.88;4.72;;;;;;;16.20;73.05;102996.22;4936697;28;20050;-66
2021/09/01 07:15:09;;;;;;;12.10;5.05;;;;;;;16.24;73.30;103001.53;4937296;28;20155;-66
2021/09/01 07:17:38;;;;;;;8.40;4.03;;;;;;;16.33;73.43;103000.44;4935906;28;20269;-66
2021/09/01 07:20:07;;;;;;;10.90;4.75;;;;;;;16.36;72.34;102996.78;4936996;28;20074;-66
2021/09/01 07:22:36;;;;;;;13.25;4.82;;;;;;;16.38;72.46;103003.91;4939975;28;20466;-66
2021/09/01 07:25:07;;;;;;;12.00;5.05;;;;;;;16.45;73.58;103012.75;4939052;28;20055;-66
2021/09/01 07:27:35;;;;;;;12.57;4.95;;;;;;;16.36;74.32;103012.94;4940515;28;20111;-66
2021/09/01 07:30:04;;;;;;;13.93;4.93;;;;;;;16.33;75.40;103015.69;4940017;28;20051;-66
2021/09/01 07:32:31;;;;;;;13.35;5.30;;;;;;;16.27;75.51;103024.81;4940141;28;20234;-66
2021/09/01 07:34:59;;;;;;;13.50;4.80;;;;;;;16.37;75.61;103029.06;4936474;28;20099;-66
2021/09/01 07:37:28;;;;;;;12.07;4.35;;;;;;;16.34;75.48;103031.81;4937546;28;20058;-66
2021/09/01 07:39:56;;;;;;;11.55;4.25;;;;;;;16.42;75.47;103032.56;4940991;28;20429;-66
2021/09/01 07:42:25;;;;;;;13.18;4.53;;;;;;;16.39;75.41;103034.44;4939734;28;20576;-66
2021/09/01 07:44:53;;;;;;;11.32;4.47;;;;;;;16.49;74.90;103036.00;4942298;28;20054;-66
2021/09/01 07:47:21;;;;;;;13.35;5.25;;;;;;;16.59;74.96;103036.69;4937454;28;20043;-66
2021/09/01 07:49:48;;;;;;;10.50;4.00;;;;;;;16.52;74.22;103045.84;4942534;28;20074;-66
2021/09/01 07:52:16;;;;;;;10.52;4.25;;;;;;;16.52;73.08;103043.16;4937880;28;20511;-67
2021/09/01 07:54:44;;;;;;;8.48;3.65;;;;;;;16.64;73.66;103045.56;4939276;28;20156;-66
2021/09/01 07:57:12;;;;;;;12.20;4.15;;;;;;;16.55;73.21;103045.75;4943335;28;20051;-66
2021/09/01 07:59:41;;;;;;;9.27;3.72;;;;;;;16.46;73.62;103048.66;4938886;28;20600;-66
2021/09/01 08:02:08;;;;;;;11.32;4.05;;;;;;;16.47;74.20;103055.84;4941450;28;20143;-66
2021/09/01 08:04:37;;;;;;;9.02;3.88;;;;;;;16.49;73.78;103052.16;4937340;28;20519;-66
2021/09/01 08:07:04;;;;;;;13.65;3.92;;;;;;;16.52;74.02;103056.63;4939641;28;20582;-69
2021/09/01 08:09:32;;;;;;;11.00;3.95;;;;;;;16.51;74.27;103060.22;4941399;28;20058;-69
2021/09/01 08:12:00;;;;;;;10.60;3.95;;;;;;;16.42;74.08;103056.81;4939940;28;20437;-69
2021/09/01 08:14:28;;;;;;;13.55;3.92;;;;;;;16.47;74.66;103066.59;4940135;28;20164;-69
2021/09/01 08:16:57;;;;;;;14.98;5.55;;;;;;;16.58;74.66;103062.75;4941120;28;20155;-69
2021/09/01 08:19:25;;;;;;;9.07;3.85;;;;;;;16.53;74.87;103055.69;4941961;28;20058;-69
2021/09/01 08:21:52;;;;;;;11.50;3.67;;;;;;;16.66;74.91;103067.97;4941481;28;20109;-69
2021/09/01 08:24:20;;;;;;;12.57;4.10;;;;;;;16.59;75.04;103072.59;4939142;28;20528;-69
2021/09/01 08:26:48;;;;;;;12.88;3.75;;;;;;;16.62;75.48;103063.56;4942982;28;20055;-69
2021/09/01 08:29:15;;;;;;;10.35;3.35;;;;;;;16.80;74.99;103065.84;4937915;28;20043;-69
2021/09/01 08:31:43;;;;;;;14.00;4.63;;;;;;;16.76;74.58;103074.91;4939842;28;20409;-69
2021/09/01 08:34:12;;;;;;;11.93;3.60;;;;;;;16.69;73.81;103073.28;4939174;28;20070;-69
2021/09/01 08:36:40;;;;;;;9.93;3.50;;;;;;;16.73;73.71;103074.09;4939261;28;20059;-69
2021/09/01 08:39:08;;;;;;;9.68;3.38;;;;;;;16.62;72.83;103075.22;4940301;28;20055;-70
2021/09/01 08:41:37;;;;;;;10.05;3.60;;;;;;;16.53;72.93;103083.53;4938609;28;20107;-71
2021/09/01 08:44:05;;;;;;;10.13;3.95;;;;;;;16.51;73.46;103073.69;4940080;28;20086;-70
2021/09/01 08:46:38;;;;;;;12.00;3.80;;;;;;;16.59;73.77;103083.38;4936850;28;20051;-68
2021/09/01 08:49:06;;;;;;;9.43;3.22;;;;;;;16.51;73.97;103076.38;4942465;28;20043;-65
2021/09/01 08:51:35;;;;;;;14.02;4.32;;;;;;;16.48;76.39;103084.53;4937243;28;20475;-65
2021/09/01 08:54:04;;;;;;;9.65;4.13;;;;;;;16.12;80.83;103087.94;4937896;28;20055;-65
2021/09/01 08:56:32;;;;;;;12.35;4.35;;;;;;;16.25;81.13;103091.28;4939452;28;20051;-65
2021/09/01 08:59:00;;;;;;;11.23;4.18;;;;;;;16.38;81.96;103100.03;4938550;28;20431;-65
2021/09/01 09:01:44;;;;;;;9.30;3.65;;;;;;;16.27;81.95;103089.44;4940673;28;20055;-65
2021/09/01 09:04:18;;;;;;;10.07;4.28;;;;;;;16.30;81.51;103085.81;4939552;28;20165;-65
2021/09/01 09:06:51;;;;;;;15.27;3.80;;;;;;;16.24;80.68;103082.34;4937580;28;20484;-65
2021/09/01 09:09:20;;;;;;;12.77;3.95;;;;;;;16.60;78.68;103081.56;4939009;28;20154;-65
2021/09/01 09:11:48;;;;;;;8.50;3.20;;;;;;;16.98;76.84;103083.44;4938584;28;20344;-65
2021/09/01 09:14:23;;;;;;;10.48;3.80;;;;;;;16.83;75.34;103070.28;4937507;28;20047;-65
2021/09/01 09:17:03;;;;;;;11.52;4.28;;;;;;;16.82;74.39;103073.88;4936096;28;20050;-66
2021/09/01 09:19:50;;;;;;;11.13;3.72;;;;;;;17.00;74.75;103069.91;4939394;28;20078;-65
2021/09/01 09:22:25;;;;;;;11.38;3.80;;;;;;;17.52;73.10;103078.50;4936625;28;20133;-68
2021/09/01 09:25:12;;;;;;;10.60;3.50;;;;;;;17.71;72.13;103081.63;4940379;28;20058;-68
2021/09/01 09:27:43;;;;;;;8.55;3.55;;;;;;;17.53;72.88;103091.97;4933827;28;20044;-68
2021/09/01 09:30:31;;;;;;;11.50;4.20;;;;;;;17.44;73.07;103086.81;4935935;28;20098;-68
2021/09/01 09:33:00;;;;;;;10.65;3.47;;;;;;;17.69;72.30;103086.16;4936194;28;20864;-67
2021/09/01 09:35:46;;;;;;;10.95;3.67;;;;;;;17.91;71.71;103090.13;4934169;28;20063;-68
2021/09/01 09:38:26;;;;;;;7.38;3.40;;;;;;;18.36;70.66;103090.69;4933844;28;20689;-68
2021/09/01 09:40:53;;;;;;;10.38;3.42;;;;;;;18.60;69.50;103089.94;4934983;28;20103;-68
2021/09/01 09:43:24;;;;;;;8.57;3.40;;;;;;;18.07;70.69;103090.56;4937154;28;20123;-68
2021/09/01 09:46:01;;;;;;;9.52;3.13;;;;;;;17.83;71.61;103085.81;4936175;28;20228;-68
2021/09/01 09:48:35;;;;;;;6.43;3.00;;;;;;;17.60;72.04;103086.41;4934754;28;20047;-68
2021/09/01 09:51:06;;;;;;;10.38;3.55;;;;;;;17.71;71.72;103085.22;4938144;28;20047;-68
2021/09/01 09:53:37;;;;;;;9.25;3.35;;;;;;;17.74;72.40;103084.22;4935862;28;20288;-68
2021/09/01 09:56:07;;;;;;;10.38;3.25;;;;;;;18.24;71.33;103083.81;4937820;28;20055;-68
2021/09/01 09:58:38;;;;;;;8.40;2.97;;;;;;;18.55;69.41;103083.78;4938402;28;20055;-68
2021/09/01 10:01:07;;;;;;;7.63;2.78;;;;;;;18.94;68.32;103080.78;4937007;28;20055;-68
2021/09/01 10:03:37;;;;;;;7.65;2.95;;;;;;;18.99;67.77;103070.72;4936203;28;20058;-68
2021/09/01 10:06:10;;;;;;;8.85;2.78;;;;;;;19.39;66.63;103064.00;4937211;28;20059;-68
2021/09/01 10:08:39;;;;;;;8.48;2.97;;;;;;;19.28;67.01;103055.34;4934895;28;20452;-67
2021/09/01 10:11:09;;;;;;;7.57;3.13;;;;;;;19.96;64.86;103058.41;4938379;28;20077;-69
2021/09/01 10:13:39;;;;;;;6.68;2.58;;;;;;;19.31;64.51;103057.06;4936380;28;20051;-67
2021/09/01 10:16:15;;;;;;;4.43;2.30;;;;;;;19.30;63.50;103058.00;4937881;28;20058;-67
2021/09/01 10:18:45;;;;;;;6.07;2.38;;;;;;;19.58;63.09;103058.81;4936927;28;20507;-67
2021/09/01 10:21:14;;;;;;;5.72;2.35;;;;;;;20.02;62.64;103046.44;4938183;28;20040;-67
2021/09/01 10:23:45;;;;;;;5.47;2.10;;;;;;;20.42;60.00;103048.53;4936758;28;20375;-67
2021/09/01 10:26:28;;;;;;;4.38;1.83;;;;;;;20.34;58.61;103046.09;4939030;28;20065;-70
2021/09/01 10:28:58;;;;;;;7.25;2.28;;;;;;;20.48;59.14;103048.31;4935965;28;20048;-67
2021/09/01 10:31:31;;;;;;;6.15;2.63;;;;;;;20.56;58.85;103048.00;4934370;28;20047;-70
2021/09/01 10:34:02;;;;;;;4.72;2.00;;;;;;;20.13;60.20;103047.81;4936012;28;20138;-67
2021/09/01 10:36:47;;;;;;;6.10;2.13;;;;;;;20.32;58.77;103044.41;4938393;28;20059;-67
2021/09/01 10:39:44;;;;;;;4.22;1.83;;;;;;;20.60;58.07;103044.22;4933910;28;20090;-68
2021/09/01 10:42:41;;;;;;;6.95;2.30;;;;;;;20.34;57.72;103042.53;4934757;28;20059;-68
2021/09/01 10:45:12;;;;;;;4.18;2.00;;;;;;;20.84;57.12;103038.78;4938748;28;20055;-69
2021/09/01 10:48:09;;;;;;;4.68;2.03;;;;;;;20.52;57.61;103046.34;4931794;28;20051;-68
2021/09/01 10:50:38;;;;;;;6.65;2.20;;;;;;;20.37;57.48;103039.69;4937104;28;20107;-68
2021/09/01 10:53:17;;;;;;;5.05;1.90;;;;;;;20.59;58.06;103045.16;4939776;28;20058;-68
2021/09/01 10:56:05;;;;;;;5.20;2.17;;;;;;;20.53;58.00;103038.16;4939502;28;20059;-67
2021/09/01 10:58:39;;;;;;;7.72;2.40;;;;;;;20.56;58.93;103028.13;4938854;28;20043;-68
2021/09/01 11:01:09;;;;;;;7.25;2.90;;;;;;;20.59;59.01;103034.31;4934909;28;20531;-68
2021/09/01 11:03:39;;;;;;;6.90;2.20;;;;;;;20.71;58.82;103030.25;4937644;28;20043;-68
2021/09/01 11:06:11;;;;;;;6.72;2.60;;;;;;;20.57;58.01;103028.06;4940864;28;20047;-68
2021/09/01 11:08:59;;;;;;;7.80;2.25;;;;;;;20.34;58.89;103028.97;4939902;28;20217;-68
2021/09/01 11:11:46;;;;;;;5.57;2.13;;;;;;;20.51;59.31;103034.59;4941829;28;20206;-68
2021/09/01 11:14:28;;;;;;;4.47;2.10;;;;;;;20.17;59.98;103020.59;4940897;28;20345;-68
2021/09/01 11:16:56;;;;;;;6.57;2.35;;;;;;;20.30;59.48;103019.19;4943274;28;20462;-68
2021/09/01 11:19:24;;;;;;;6.47;2.40;;;;;;;19.69;60.55;103022.34;4939838;28;20448;-69
2021/09/01 11:21:52;;;;;;;7.03;2.08;;;;;;;20.13;59.24;103026.13;4940564;28;20305;-68
2021/09/01 11:24:20;;;;;;;6.68;2.75;;;;;;;19.95;60.47;103024.13;4937395;28;20110;-68
2021/09/01 11:26:56;;;;;;;7.15;2.42;;;;;;;20.06;58.91;103030.03;4938004;28;20137;-68
2021/09/01 11:29:35;;;;;;;5.95;2.25;;;;;;;20.41;58.58;103030.50;4941169;28;20707;-67
2021/09/01 11:32:03;;;;;;;6.68;2.92;;;;;;;20.10;59.26;103033.50;4939650;28;20525;-67